.
WxDataArchive / Data Records for 2009-06-02
2009-06-01 June 2009 2009-06-03

Data Records for Tuesday, 02 June 2009

Time	Temp	Chill	HIndex	Humid	Dewpt	 Wind 	HiWind	WindDir	Rain 	Barom 
-----	----	-----	------	-----	-----	------	------	-------	-----	----- 
00:00	68.8	68.8	68.8	83	63.4	1	3	225	0.00	29.965 
00:05	68.4	68.4	68.4	84	63.4	1	3	248	0.01	29.965 
00:10	68.1	68.1	68.1	86	63.7	1	5	248	0.01	29.965 
00:15	67.6	67.6	67.6	88	63.9	0	2	248	0.00	29.969 
00:20	67.3	67.3	67.3	89	63.9	1	2	248	0.01	29.969 
00:25	67.1	67.1	67.1	90	64.1	1	3	248	0.01	29.969 
00:30	66.8	66.8	66.8	91	64.1	1	2	248	0.00	29.975 
00:35	66.8	66.8	66.8	92	64.4	0	1	248	0.00	29.975 
00:40	66.6	66.6	66.6	92	64.2	1	3	248	0.00	29.975 
00:45	66.6	66.6	66.6	92	64.2	1	5	270	0.00	29.991 
00:50	66.4	66.4	66.4	93	64.3	2	4	270	0.00	29.991 
00:55	66.4	66.4	66.4	93	64.3	2	4	248	0.01	29.991 
01:00	66.4	66.4	66.4	93	64.3	1	4	248	0.02	29.990 
01:05	66.3	66.3	66.3	94	64.5	1	3	270	0.01	29.990 
01:10	66.3	66.3	66.3	94	64.5	1	3	248	0.01	29.990 
01:15	66.3	66.3	66.3	94	64.5	1	4	270	0.01	29.974 
01:20	66.3	66.3	66.3	94	64.5	1	4	270	0.01	29.974 
01:25	66.3	66.3	66.3	94	64.5	1	5	270	0.01	29.974 
01:30	66.3	66.3	66.3	94	64.5	1	2	270	0.02	29.971 
01:35	66.1	66.1	66.1	94	64.3	1	4	270	0.01	29.971 
01:40	66.1	66.1	66.1	95	64.6	1	3	248	0.00	29.971 
01:45	66.1	66.1	66.1	95	64.6	0	3	248	0.01	29.969 
01:50	66.1	66.1	66.1	95	64.6	0	2	248	0.00	29.969 
01:55	66.0	66.0	66.0	95	64.5	0	1	248	0.00	29.969 
02:00	66.0	66.0	66.0	95	64.5	0	1	248	0.00	29.957 
02:05	66.0	66.0	66.0	95	64.5	0	0	---	0.00	29.957 
02:10	65.8	65.8	65.8	95	64.3	0	0	---	0.00	29.957 
02:15	65.8	65.8	65.8	95	64.3	0	0	---	0.00	29.948 
02:20	65.6	65.6	65.6	95	64.1	0	0	---	0.00	29.948 
02:25	65.6	65.6	65.6	95	64.1	0	0	---	0.01	29.948 
02:30	65.6	65.6	65.6	95	64.1	0	1	248	0.00	29.953 
02:35	65.6	65.6	65.6	95	64.1	0	1	248	0.00	29.953 
02:40	65.6	65.6	65.6	95	64.1	0	1	248	0.01	29.953 
02:45	65.6	65.6	65.6	95	64.1	0	1	248	0.00	29.965 
02:50	65.6	65.6	65.6	95	64.1	0	1	248	0.01	29.965 
02:55	65.5	65.5	65.5	95	64.0	0	1	248	0.01	29.965 
03:00	65.5	65.5	65.5	96	64.3	0	1	248	0.00	29.950 
03:05	65.3	65.3	65.3	95	63.8	1	2	315	0.00	29.950 
03:10	65.3	65.3	65.3	96	64.1	0	0	---	0.00	29.950 
03:15	65.3	65.3	65.3	96	64.1	0	1	315	0.00	29.935 
03:20	65.2	65.2	65.2	96	64.0	0	1	315	0.00	29.935 
03:25	65.2	65.2	65.2	96	64.0	0	0	---	0.00	29.935 
03:30	65.0	65.0	65.0	96	63.8	0	0	---	0.00	29.936 
03:35	65.0	65.0	65.0	96	63.8	0	0	---	0.00	29.936 
03:40	64.8	64.8	64.8	96	63.6	0	1	315	0.00	29.936 
03:45	64.8	64.8	64.8	96	63.6	0	0	---	0.00	29.934 
03:50	64.7	64.7	64.7	96	63.5	0	1	315	0.00	29.934 
03:55	64.7	64.7	64.7	96	63.5	0	1	315	0.00	29.934 
04:00	64.5	64.5	64.5	96	63.3	0	4	135	0.00	29.939 
04:05	64.3	64.3	64.3	96	63.1	0	3	135	0.01	29.939 
04:10	64.2	64.2	64.2	96	63.0	0	1	135	0.00	29.939 
04:15	64.0	64.0	64.0	96	62.8	0	0	---	0.00	29.946 
04:20	64.0	64.0	64.0	96	62.8	0	0	---	0.00	29.946 
04:25	63.9	63.9	63.9	96	62.7	0	0	---	0.00	29.946 
04:30	63.9	63.9	63.9	96	62.7	0	0	---	0.00	29.949 
04:35	63.9	63.9	63.9	96	62.7	0	0	---	0.00	29.949 
04:40	63.9	63.9	63.9	96	62.7	0	0	---	0.00	29.949 
04:45	63.9	63.9	63.9	96	62.7	0	0	---	0.00	29.966 
04:50	63.9	63.9	63.9	96	62.7	0	0	---	0.00	29.966 
04:55	64.0	64.0	64.0	96	62.8	0	0	---	0.00	29.966 
05:00	64.0	64.0	64.0	96	62.8	0	0	---	0.00	29.968 
05:05	64.0	64.0	64.0	96	62.8	0	1	135	0.00	29.968 
05:10	64.0	64.0	64.0	96	62.8	0	0	---	0.01	29.968 
05:15	63.9	63.9	63.9	96	62.7	0	0	---	0.00	29.962 
05:20	63.9	63.9	63.9	96	62.7	0	0	---	0.00	29.962 
05:25	63.9	63.9	63.9	96	62.7	0	0	---	0.00	29.962 
05:30	63.9	63.9	63.9	96	62.7	0	0	---	0.00	29.968 
05:35	63.9	63.9	63.9	96	62.7	0	0	---	0.00	29.968 
05:40	63.9	63.9	63.9	96	62.7	0	0	---	0.00	29.968 
05:45	63.7	63.7	63.7	96	62.5	0	0	---	0.00	29.979 
05:50	63.7	63.7	63.7	96	62.5	0	0	---	0.00	29.979 
05:55	63.7	63.7	63.7	96	62.5	0	0	---	0.00	29.979 
06:00	63.7	63.7	63.7	96	62.5	0	1	135	0.00	29.979 
06:05	63.7	63.7	63.7	96	62.5	0	2	135	0.00	29.979 
06:10	63.1	63.1	63.1	96	61.9	2	5	112	0.00	29.979 
06:15	61.5	61.5	61.5	95	60.1	2	5	112	0.00	30.001 
06:20	60.1	60.1	60.1	95	58.7	3	7	90	0.00	30.001 
06:25	59.5	59.5	59.5	95	58.1	2	5	90	0.00	30.001 
06:30	58.9	58.9	58.9	96	57.8	3	10	112	0.00	30.015 
06:35	58.9	58.9	58.9	96	57.8	2	5	112	0.00	30.015 
06:40	58.6	58.6	58.6	96	57.5	2	6	90	0.00	30.015 
06:45	58.1	58.1	58.1	96	57.0	2	8	90	0.00	30.022 
06:50	57.8	57.8	57.8	96	56.7	3	6	112	0.00	30.022 
06:55	57.5	57.5	57.5	96	56.4	3	8	112	0.00	30.022 
07:00	57.0	57.0	57.0	96	55.9	2	6	112	0.00	30.027 
07:05	56.9	56.9	56.9	96	55.8	2	5	112	0.00	30.027 
07:10	56.5	56.5	56.5	96	55.4	4	10	90	0.00	30.027 
07:15	56.0	56.0	56.0	96	54.9	4	9	90	0.00	30.028 
07:20	55.9	55.9	55.9	96	54.8	4	9	112	0.00	30.028 
07:25	55.7	55.7	55.7	96	54.6	2	7	112	0.00	30.028 
07:30	55.7	55.7	55.7	96	54.6	2	7	90	0.00	30.045 
07:35	55.4	55.4	55.4	96	54.3	2	7	90	0.00	30.045 
07:40	55.4	55.4	55.4	96	54.3	2	5	112	0.00	30.045 
07:45	55.3	55.3	55.3	96	54.2	2	7	112	0.00	30.059 
07:50	55.3	55.3	55.3	96	54.2	2	5	112	0.00	30.059 
07:55	55.1	55.1	55.1	96	54.0	4	10	90	0.00	30.059 
08:00	55.1	55.1	55.1	96	54.0	3	7	90	0.00	30.059 
08:05	55.0	55.0	55.0	96	53.9	3	6	90	0.00	30.059 
08:10	55.1	55.1	55.1	96	54.0	2	6	90	0.00	30.059 
08:15	55.1	55.1	55.1	96	54.0	2	6	112	0.00	30.064 
08:20	55.0	55.0	55.0	96	53.9	2	5	112	0.00	30.064 
08:25	55.1	55.1	55.1	96	54.0	1	4	112	0.00	30.064 
08:30	55.1	55.1	55.1	96	54.0	1	5	135	0.00	30.073 
08:35	55.3	55.3	55.3	96	54.2	1	5	112	0.00	30.073 
08:40	55.1	55.1	55.1	96	54.0	2	4	22	0.00	30.073 
08:45	55.1	55.1	55.1	96	54.0	2	7	112	0.00	30.077 
08:50	55.1	55.1	55.1	96	54.0	1	4	112	0.00	30.077 
08:55	55.0	55.0	55.0	96	53.9	3	6	90	0.00	30.077 
09:00	55.0	55.0	55.0	96	53.9	2	10	112	0.00	30.075 
09:05	54.8	54.8	54.8	96	53.7	1	7	90	0.00	30.075 
09:10	54.8	54.8	54.8	96	53.7	2	6	90	0.00	30.075 
09:15	54.7	54.7	54.7	96	53.6	2	5	112	0.00	30.077 
09:20	54.5	54.5	54.5	96	53.4	2	6	90	0.00	30.077 
09:25	54.7	54.7	54.7	96	53.6	1	4	90	0.00	30.077 
09:30	54.7	54.7	54.7	96	53.6	2	5	90	0.00	30.089 
09:35	54.8	54.8	54.8	96	53.7	3	5	90	0.00	30.089 
09:40	55.0	55.0	55.0	96	53.9	1	4	90	0.00	30.089 
09:45	55.1	55.1	55.1	96	54.0	1	5	90	0.00	30.082 
09:50	55.3	55.3	55.3	96	54.2	1	3	90	0.00	30.082 
09:55	55.1	55.1	55.1	96	54.0	2	5	90	0.00	30.082 
10:00	55.1	55.1	55.1	96	54.0	2	5	112	0.00	30.081 
10:05	55.1	55.1	55.1	96	54.0	3	5	90	0.00	30.081 
10:10	55.1	55.1	55.1	96	54.0	1	4	112	0.00	30.081 
10:15	55.3	55.3	55.3	96	54.2	1	3	112	0.00	30.083 
10:20	55.1	55.1	55.1	96	54.0	2	5	112	0.00	30.083 
10:25	55.1	55.1	55.1	95	53.7	2	5	90	0.00	30.083 
10:30	55.3	55.3	55.3	95	53.9	1	3	90	0.00	30.086 
10:35	55.4	55.4	55.4	95	54.0	1	6	90	0.00	30.086 
10:40	55.4	55.4	55.4	95	54.0	1	3	112	0.00	30.086 
10:45	55.3	55.3	55.3	95	53.9	2	4	112	0.00	30.091 
10:50	55.3	55.3	55.3	95	53.9	3	7	90	0.00	30.091 
10:55	55.4	55.4	55.4	95	54.0	1	4	90	0.00	30.091 
11:00	55.6	55.6	55.6	95	54.2	1	4	112	0.00	30.091 
11:05	55.9	55.9	55.9	94	54.2	1	4	112	0.00	30.091 
11:10	55.9	55.9	55.9	94	54.2	1	3	90	0.00	30.091 
11:15	55.9	55.9	55.9	94	54.2	1	5	90	0.00	30.089 
11:20	56.0	56.0	56.0	94	54.3	2	5	90	0.00	30.089 
11:25	55.9	55.9	55.9	93	53.9	2	5	90	0.00	30.089 
11:30	55.9	55.9	55.9	93	53.9	2	5	112	0.00	30.090 
11:35	56.0	56.0	56.0	93	54.0	0	3	90	0.00	30.090 
11:40	56.0	56.0	56.0	93	54.0	1	5	90	0.00	30.090 
11:45	56.0	56.0	56.0	93	54.0	2	5	112	0.00	30.094 
11:50	56.3	56.3	56.3	93	54.3	1	3	112	0.00	30.094 
11:55	56.5	56.5	56.5	92	54.2	1	3	112	0.00	30.094 
12:00	56.6	56.6	56.6	92	54.3	2	5	90	0.00	30.094 
12:05	56.7	56.7	56.7	92	54.4	1	3	112	0.00	30.094 
12:10	56.7	56.7	56.7	91	54.1	2	4	90	0.00	30.094 
12:15	57.0	57.0	57.0	91	54.4	1	4	90	0.00	30.095 
12:20	57.0	57.0	57.0	90	54.1	2	4	90	0.00	30.095 
12:25	57.3	57.3	57.3	90	54.4	2	5	90	0.00	30.095 
12:30	57.8	57.8	57.8	89	54.6	2	5	90	0.00	30.088 
12:35	58.1	58.1	58.1	89	54.9	2	4	112	0.00	30.088 
12:40	58.3	58.3	58.3	88	54.8	3	6	90	0.00	30.088 
12:45	58.4	58.4	58.4	87	54.5	2	5	90	0.00	30.094 
12:50	58.6	58.6	58.6	88	55.1	2	4	90	0.00	30.094 
12:55	58.6	58.6	58.6	87	54.7	2	7	112	0.00	30.094 
13:00	58.7	58.7	58.7	87	54.8	2	5	90	0.00	30.092 
13:05	58.9	58.9	58.9	85	54.4	3	7	112	0.00	30.092 
13:10	59.3	59.3	59.3	86	55.1	0	2	112	0.00	30.092 
13:15	59.6	59.6	59.6	86	55.4	1	4	90	0.00	30.083 
13:20	59.9	59.9	59.9	84	55.0	2	5	112	0.00	30.083 
13:25	60.2	60.2	60.2	84	55.3	1	5	112	0.00	30.083 
13:30	60.5	60.5	60.5	84	55.6	1	5	90	0.00	30.084 
13:35	61.0	61.0	61.0	85	56.5	1	3	90	0.00	30.084 
13:40	60.9	60.9	60.9	83	55.7	3	6	90	0.00	30.084 
13:45	61.3	61.3	61.3	84	56.4	1	3	112	0.00	30.086 
13:50	61.6	61.6	61.6	82	56.0	1	4	112	0.00	30.086 
13:55	62.0	62.0	62.0	82	56.4	1	4	112	0.00	30.086 
14:00	62.1	62.1	62.1	82	56.5	1	5	90	0.00	30.088 
14:05	62.3	62.3	62.3	81	56.4	2	4	90	0.00	30.088 
14:10	62.3	62.3	62.3	82	56.7	1	5	68	0.00	30.088 
14:15	62.3	62.3	62.3	81	56.4	1	3	90	0.00	30.086 
14:20	62.3	62.3	62.3	81	56.4	1	4	90	0.00	30.086 
14:25	62.3	62.3	62.3	83	57.1	1	3	90	0.00	30.086 
14:30	62.4	62.4	62.4	83	57.2	1	4	90	0.00	30.086 
14:35	62.7	62.7	62.7	82	57.1	0	1	90	0.00	30.086 
14:40	62.6	62.6	62.6	80	56.3	1	4	90	0.00	30.086 
14:45	62.6	62.6	62.6	81	56.7	0	3	90	0.00	30.090 
14:50	62.6	62.6	62.6	81	56.7	1	4	90	0.00	30.090 
14:55	62.4	62.4	62.4	81	56.5	1	3	90	0.00	30.090 
15:00	62.4	62.4	62.4	82	56.8	1	3	90	0.00	30.090 
15:05	62.6	62.6	62.6	81	56.7	1	3	90	0.00	30.090 
15:10	62.6	62.6	62.6	80	56.3	2	4	112	0.00	30.090 
15:15	62.6	62.6	62.6	81	56.7	1	3	112	0.00	30.088 
15:20	62.9	62.9	62.9	82	57.3	0	2	112	0.00	30.088 
15:25	63.1	63.1	63.1	81	57.2	1	3	68	0.00	30.088 
15:30	63.1	63.1	63.1	81	57.2	1	3	90	0.00	30.088 
15:35	63.4	63.4	63.4	81	57.5	1	2	90	0.00	30.088 
15:40	63.9	63.9	63.9	80	57.6	1	3	90	0.00	30.088 
15:45	64.2	64.2	64.2	81	58.2	1	3	112	0.00	30.077 
15:50	64.3	64.3	64.3	79	57.6	0	2	112	0.00	30.077 
15:55	64.3	64.3	64.3	79	57.6	1	4	90	0.00	30.077 
16:00	64.2	64.2	64.2	79	57.5	1	5	90	0.00	30.071 
16:05	64.0	64.0	64.0	78	57.0	1	7	90	0.00	30.071 
16:10	64.0	64.0	64.0	79	57.4	1	4	112	0.00	30.071 
16:15	64.0	64.0	64.0	79	57.4	1	3	112	0.00	30.061 
16:20	64.0	64.0	64.0	80	57.7	1	3	68	0.00	30.061 
16:25	64.0	64.0	64.0	79	57.4	1	5	112	0.00	30.061 
16:30	64.0	64.0	64.0	80	57.7	1	4	112	0.00	30.057 
16:35	64.2	64.2	64.2	80	57.9	1	4	112	0.00	30.057 
16:40	64.0	64.0	64.0	80	57.7	2	5	112	0.00	30.057 
16:45	63.7	63.7	63.7	80	57.4	2	6	112	0.00	30.050 
16:50	63.7	63.7	63.7	81	57.8	2	4	112	0.00	30.050 
16:55	63.9	63.9	63.9	81	57.9	1	4	112	0.00	30.050 
17:00	63.9	63.9	63.9	81	57.9	1	4	112	0.00	30.045 
17:05	63.7	63.7	63.7	81	57.8	2	4	112	0.00	30.045 
17:10	63.7	63.7	63.7	81	57.8	0	2	90	0.00	30.045 
17:15	63.9	63.9	63.9	81	57.9	1	3	90	0.00	30.054 
17:20	63.5	63.5	63.5	80	57.2	2	7	90	0.00	30.054 
17:25	63.2	63.2	63.2	81	57.3	2	6	90	0.00	30.054 
17:30	63.1	63.1	63.1	81	57.2	2	5	90	0.00	30.048 
17:35	63.1	63.1	63.1	81	57.2	1	4	112	0.00	30.048 
17:40	63.1	63.1	63.1	81	57.2	1	4	112	0.00	30.048 
17:45	63.1	63.1	63.1	81	57.2	2	7	90	0.00	30.045 
17:50	63.2	63.2	63.2	82	57.6	1	4	90	0.00	30.045 
17:55	63.4	63.4	63.4	81	57.5	1	4	90	0.00	30.045 
18:00	63.2	63.2	63.2	81	57.3	1	4	90	0.00	30.045 
18:05	63.2	63.2	63.2	81	57.3	1	3	90	0.00	30.045 
18:10	63.2	63.2	63.2	80	56.9	1	4	112	0.00	30.045 
18:15	63.4	63.4	63.4	80	57.1	1	3	180	0.00	30.049 
18:20	63.2	63.2	63.2	80	56.9	2	5	135	0.00	30.049 
18:25	63.1	63.1	63.1	80	56.8	2	4	90	0.00	30.049 
18:30	62.9	62.9	62.9	80	56.6	2	4	90	0.00	30.049 
18:35	63.1	63.1	63.1	81	57.2	2	4	90	0.00	30.049 
18:40	63.2	63.2	63.2	81	57.3	1	3	90	0.00	30.049 
18:45	63.1	63.1	63.1	80	56.8	2	4	112	0.00	30.051 
18:50	62.9	62.9	62.9	81	57.0	1	3	135	0.00	30.051 
18:55	62.9	62.9	62.9	80	56.6	2	4	112	0.00	30.051 
19:00	62.9	62.9	62.9	82	57.3	1	3	112	0.00	30.055 
19:05	62.9	62.9	62.9	80	56.6	1	4	68	0.00	30.055 
19:10	62.7	62.7	62.7	81	56.8	0	3	68	0.00	30.055 
19:15	62.7	62.7	62.7	80	56.4	0	2	68	0.00	30.053 
19:20	62.6	62.6	62.6	81	56.7	1	3	90	0.00	30.053 
19:25	62.6	62.6	62.6	81	56.7	1	4	112	0.00	30.053 
19:30	62.6	62.6	62.6	81	56.7	2	6	90	0.00	30.058 
19:35	62.6	62.6	62.6	81	56.7	1	3	112	0.00	30.058 
19:40	62.6	62.6	62.6	81	56.7	0	3	112	0.00	30.058 
19:45	62.4	62.4	62.4	81	56.5	1	4	90	0.00	30.052 
19:50	62.4	62.4	62.4	81	56.5	1	2	112	0.00	30.052 
19:55	62.3	62.3	62.3	81	56.4	1	7	112	0.00	30.052 
20:00	62.1	62.1	62.1	81	56.2	1	4	90	0.00	30.055 
20:05	62.1	62.1	62.1	80	55.9	1	5	112	0.00	30.055 
20:10	62.1	62.1	62.1	81	56.2	0	2	112	0.00	30.055 
20:15	62.0	62.0	62.0	81	56.1	1	4	112	0.00	30.061 
20:20	61.8	61.8	61.8	81	55.9	1	3	68	0.00	30.061 
20:25	61.6	61.6	61.6	81	55.7	1	4	90	0.00	30.061 
20:30	61.5	61.5	61.5	81	55.6	2	4	90	0.00	30.056 
20:35	61.3	61.3	61.3	81	55.4	2	5	90	0.00	30.056 
20:40	61.2	61.2	61.2	81	55.3	1	3	112	0.00	30.056 
20:45	61.0	61.0	61.0	81	55.1	1	3	112	0.00	30.055 
20:50	60.9	60.9	60.9	82	55.4	1	3	112	0.00	30.055 
20:55	60.9	60.9	60.9	82	55.4	1	2	112	0.00	30.055 
21:00	60.7	60.7	60.7	82	55.2	0	2	112	0.00	30.062 
21:05	60.7	60.7	60.7	83	55.5	0	2	112	0.00	30.062 
21:10	60.5	60.5	60.5	83	55.3	0	1	112	0.00	30.062 
21:15	60.5	60.5	60.5	84	55.6	0	1	112	0.00	30.064 
21:20	60.4	60.4	60.4	84	55.5	0	2	112	0.00	30.064 
21:25	60.2	60.2	60.2	84	55.3	0	2	112	0.00	30.064 
21:30	60.2	60.2	60.2	84	55.3	0	2	112	0.00	30.064 
21:35	60.2	60.2	60.2	84	55.3	0	2	112	0.00	30.064 
21:40	60.1	60.1	60.1	85	55.6	0	1	112	0.00	30.064 
21:45	60.1	60.1	60.1	85	55.6	0	1	112	0.00	30.069 
21:50	60.1	60.1	60.1	85	55.6	0	3	112	0.00	30.069 
21:55	59.9	59.9	59.9	85	55.4	0	2	112	0.00	30.069 
22:00	59.9	59.9	59.9	85	55.4	0	1	112	0.00	30.071 
22:05	59.8	59.8	59.8	86	55.6	0	2	112	0.00	30.071 
22:10	59.8	59.8	59.8	86	55.6	0	1	112	0.00	30.071 
22:15	59.6	59.6	59.6	86	55.4	0	1	112	0.00	30.077 
22:20	59.6	59.6	59.6	87	55.7	0	0	---	0.00	30.077 
22:25	59.6	59.6	59.6	87	55.7	0	2	112	0.00	30.077 
22:30	59.6	59.6	59.6	86	55.4	0	3	112	0.00	30.079 
22:35	59.6	59.6	59.6	86	55.4	0	1	112	0.00	30.079 
22:40	59.5	59.5	59.5	87	55.6	0	1	112	0.00	30.079 
22:45	59.5	59.5	59.5	87	55.6	0	2	112	0.00	30.081 
22:50	59.3	59.3	59.3	87	55.4	0	3	112	0.00	30.081 
22:55	59.3	59.3	59.3	87	55.4	0	3	135	0.00	30.081 
23:00	59.3	59.3	59.3	87	55.4	0	3	135	0.00	30.087 
23:05	59.3	59.3	59.3	87	55.4	0	3	135	0.00	30.087 
23:10	59.2	59.2	59.2	87	55.3	0	1	135	0.00	30.087 
23:15	59.2	59.2	59.2	87	55.3	0	1	135	0.00	30.090 
23:20	59.2	59.2	59.2	87	55.3	0	2	135	0.00	30.090 
23:25	59.2	59.2	59.2	87	55.3	0	2	135	0.00	30.090 
23:30	59.2	59.2	59.2	87	55.3	1	3	135	0.00	30.097 
23:35	59.2	59.2	59.2	87	55.3	0	1	135	0.00	30.097 
23:40	59.2	59.2	59.2	87	55.3	0	0	---	0.00	30.097 
23:45	59.2	59.2	59.2	87	55.3	0	1	135	0.00	30.089 
23:50	59.2	59.2	59.2	87	55.3	0	2	135	0.00	30.089 
23:55	59.2	59.2	59.2	87	55.3	0	2	135	0.00	30.089 

CoCoRaHS
IN-AL-39
A2 Web Hosting
Creative Commons License
GoDaddy
search engine by freefind advanced

loaded 2018-11-21 01:01:53 • last modified 2010-11-18 10:43:29
Privacy PolicyDisclaimer
• wx.awcolley.com is powered by PmWiki v.2002016 •
• all content (unless otherwise noted) © 2018 A W Colley